createdAt,value
2018-04-01T00:02:07.109Z,15.73
2018-04-01T00:04:34.147Z,15.71
2018-04-01T00:07:01.166Z,15.69
2018-04-01T00:09:28.169Z,15.72
2018-04-01T00:11:55.225Z,15.66
2018-04-01T00:14:22.239Z,15.67
2018-04-01T00:16:49.245Z,15.66
2018-04-01T00:19:16.270Z,15.70
2018-04-01T00:21:43.270Z,15.66
2018-04-01T00:24:10.304Z,15.63
2018-04-01T00:26:37.487Z,15.59
2018-04-01T00:29:04.490Z,15.61
2018-04-01T00:31:31.498Z,15.59
2018-04-01T00:33:58.527Z,15.50
2018-04-01T00:36:25.534Z,15.57
2018-04-01T00:38:52.536Z,15.58
2018-04-01T00:41:19.594Z,15.56
2018-04-01T00:43:46.597Z,15.52
2018-04-01T00:46:13.771Z,15.50
2018-04-01T00:48:41.445Z,15.43
2018-04-01T00:51:08.466Z,15.36
2018-04-01T00:53:35.462Z,15.39
2018-04-01T00:56:02.810Z,15.36
2018-04-01T00:58:29.818Z,15.30
2018-04-01T01:00:56.817Z,15.32
2018-04-01T01:03:23.932Z,15.37
2018-04-01T01:05:50.942Z,15.35
2018-04-01T01:08:17.983Z,15.33
2018-04-01T01:10:45.301Z,15.28
2018-04-01T01:13:12.304Z,15.19
2018-04-01T01:15:39.309Z,15.12
2018-04-01T01:18:06.634Z,15.11
2018-04-01T01:20:33.633Z,15.03
2018-04-01T01:23:00.641Z,14.96
2018-04-01T01:25:27.774Z,14.94
2018-04-01T01:27:54.781Z,14.83
2018-04-01T01:30:21.834Z,14.81
2018-04-01T01:32:48.842Z,14.83
2018-04-01T01:35:15.849Z,14.76
2018-04-01T01:37:42.995Z,14.75
2018-04-01T01:40:10.013Z,14.68
2018-04-01T01:42:37.043Z,14.68
2018-04-01T01:45:04.098Z,14.70
2018-04-01T01:47:31.112Z,14.63
2018-04-01T01:49:59.242Z,14.60
2018-04-01T01:52:26.399Z,14.59
2018-04-01T01:54:53.402Z,14.52
2018-04-01T01:57:20.420Z,14.44
2018-04-01T01:59:47.752Z,14.43
2018-04-01T02:02:14.762Z,14.33
2018-04-01T02:04:41.773Z,14.28
2018-04-01T02:07:08.809Z,14.23
2018-04-01T02:09:35.835Z,14.23
2018-04-01T02:12:02.862Z,14.22
2018-04-01T02:14:29.919Z,14.17
2018-04-01T02:16:56.920Z,14.09
2018-04-01T02:19:23.949Z,14.02
2018-04-01T02:21:51.129Z,13.98
2018-04-01T02:24:18.158Z,13.92
2018-04-01T02:26:45.169Z,13.83
2018-04-01T02:29:12.320Z,13.87
2018-04-01T02:31:39.339Z,13.79
2018-04-01T02:34:06.354Z,13.83
2018-04-01T02:36:33.514Z,13.85
2018-04-01T02:39:00.521Z,13.79
2018-04-01T02:41:27.535Z,13.69
2018-04-01T02:43:54.566Z,13.69
2018-04-01T02:46:21.576Z,13.68
2018-04-01T02:48:48.594Z,13.64
2018-04-01T02:51:15.649Z,13.51
2018-04-01T02:53:42.649Z,13.36
2018-04-01T02:56:09.646Z,13.24
2018-04-01T02:58:36.687Z,13.06
2018-04-01T03:01:03.688Z,12.89
2018-04-01T03:03:30.707Z,12.83
2018-04-01T03:05:57.885Z,12.71
2018-04-01T03:08:24.892Z,12.54
2018-04-01T03:10:51.917Z,12.29
2018-04-01T03:13:18.957Z,12.28
2018-04-01T03:15:45.968Z,12.18
2018-04-01T03:18:12.969Z,12.08
2018-04-01T03:20:40.072Z,11.93
2018-04-01T03:23:07.098Z,11.91
2018-04-01T03:25:34.108Z,11.80
2018-04-01T03:28:01.136Z,11.58
2018-04-01T03:30:28.152Z,11.63
2018-04-01T03:32:55.149Z,11.55
2018-04-01T03:35:22.201Z,11.44
2018-04-01T03:37:49.218Z,11.36
2018-04-01T03:40:16.248Z,11.27
2018-04-01T03:42:43.317Z,11.25
2018-04-01T03:45:10.347Z,11.17
2018-04-01T03:47:37.362Z,11.13
2018-04-01T03:50:04.566Z,10.94
2018-04-01T03:52:31.563Z,10.77
2018-04-01T03:54:58.570Z,10.73
2018-04-01T03:57:25.754Z,10.52
2018-04-01T03:59:52.757Z,10.29
2018-04-01T04:02:19.782Z,10.12
2018-04-01T04:04:46.837Z,9.96
2018-04-01T04:07:13.881Z,9.81
2018-04-01T04:09:40.888Z,9.66
2018-04-01T04:12:08.214Z,9.54
2018-04-01T04:14:35.222Z,9.45
2018-04-01T04:17:02.221Z,9.39
2018-04-01T04:19:29.286Z,9.28
2018-04-01T04:21:56.294Z,9.18
2018-04-01T04:24:23.300Z,9.14
2018-04-01T04:26:50.337Z,9.18
2018-04-01T04:29:17.341Z,9.09
2018-04-01T04:31:44.337Z,8.99
2018-04-01T04:34:11.654Z,8.90
2018-04-01T04:36:38.656Z,8.78
2018-04-01T04:39:05.665Z,8.72
2018-04-01T04:41:32.849Z,8.71
2018-04-01T04:43:59.837Z,8.65
2018-04-01T04:46:26.852Z,8.57
2018-04-01T04:48:53.922Z,8.37
2018-04-01T04:51:20.922Z,8.16
2018-04-01T04:53:47.959Z,8.12
2018-04-01T04:56:15.290Z,8.07
2018-04-01T04:58:42.289Z,8.13
2018-04-01T05:01:09.302Z,8.22
2018-04-01T05:03:36.345Z,8.29
2018-04-01T05:06:03.353Z,8.35
2018-04-01T05:08:30.356Z,8.43
2018-04-01T05:10:57.412Z,8.46
2018-04-01T05:13:24.422Z,8.51
2018-04-01T05:15:51.431Z,8.64
2018-04-01T05:18:18.473Z,8.68
2018-04-01T05:20:45.464Z,8.70
2018-04-01T05:23:12.499Z,8.72
2018-04-01T05:25:39.692Z,8.78
2018-04-01T05:28:06.721Z,8.85
2018-04-01T05:30:33.760Z,8.97
2018-04-01T05:33:00.765Z,9.05
2018-04-01T05:35:27.777Z,9.17
2018-04-01T05:37:54.826Z,9.39
2018-04-01T05:40:21.844Z,9.51
2018-04-01T05:42:48.871Z,9.71
2018-04-01T05:45:15.939Z,10.10
2018-04-01T05:47:42.949Z,10.40
2018-04-01T05:50:09.965Z,10.63
2018-04-01T05:52:37.284Z,11.13
2018-04-01T05:55:04.287Z,12.04
2018-04-01T05:57:31.299Z,13.80
2018-04-01T05:59:58.330Z,16.60
2018-04-01T06:02:26.314Z,19.31
2018-04-01T06:04:53.338Z,20.91
2018-04-01T06:07:20.371Z,21.12
2018-04-01T06:09:47.389Z,21.19
2018-04-01T06:12:14.428Z,21.69
2018-04-01T06:14:41.614Z,22.37
2018-04-01T06:17:08.619Z,23.40
2018-04-01T06:19:35.652Z,24.70
2018-04-01T06:22:02.704Z,25.16
2018-04-01T06:24:29.705Z,25.67
2018-04-01T06:26:56.721Z,26.45
2018-04-01T06:29:23.864Z,27.05
2018-04-01T06:31:50.891Z,26.43
2018-04-01T06:34:17.897Z,26.90
2018-04-01T06:36:44.954Z,26.88
2018-04-01T06:39:11.968Z,27.13
2018-04-01T06:41:38.975Z,27.13
2018-04-01T06:44:06.058Z,27.78
2018-04-01T06:46:33.071Z,28.16
2018-04-01T06:49:00.075Z,28.05
2018-04-01T06:51:27.792Z,27.74
2018-04-01T06:53:54.799Z,27.95
2018-04-01T06:56:21.802Z,28.13
2018-04-01T06:58:48.858Z,28.64
2018-04-01T07:01:15.884Z,28.48
2018-04-01T07:03:42.890Z,28.84
2018-04-01T07:06:10.315Z,28.41
2018-04-01T07:08:37.324Z,29.18
2018-04-01T07:11:04.345Z,29.36
2018-04-01T07:13:31.394Z,28.96
2018-04-01T07:15:58.410Z,28.86
2018-04-01T07:18:25.421Z,28.73
2018-04-01T07:20:52.590Z,28.76
2018-04-01T07:23:19.594Z,27.81
2018-04-01T07:25:46.640Z,27.91
2018-04-01T07:28:13.690Z,27.30
2018-04-01T07:30:40.705Z,26.62
2018-04-01T07:33:07.718Z,25.49
2018-04-01T07:35:34.920Z,24.68
2018-04-01T07:38:01.923Z,23.91
2018-04-01T07:40:28.937Z,23.26
2018-04-01T07:42:55.990Z,22.67
2018-04-01T07:45:23.001Z,22.24
2018-04-01T07:47:50.009Z,21.37
2018-04-01T07:50:17.672Z,20.60
2018-04-01T07:52:44.682Z,19.58
2018-04-01T07:55:11.704Z,18.99
2018-04-01T07:57:38.775Z,18.52
2018-04-01T08:00:05.800Z,17.97
2018-04-01T08:02:32.813Z,18.05
2018-04-01T08:05:00.014Z,17.95
2018-04-01T08:07:27.678Z,17.96
2018-04-01T08:09:54.694Z,17.88
2018-04-01T08:12:21.892Z,17.70
2018-04-01T08:14:48.902Z,17.42
2018-04-01T08:17:15.940Z,17.34
2018-04-01T08:19:43.174Z,17.20
2018-04-01T08:22:10.206Z,17.11
2018-04-01T08:24:37.230Z,16.64
2018-04-01T08:27:04.446Z,16.63
2018-04-01T08:29:31.461Z,16.64
2018-04-01T08:31:58.481Z,16.73
2018-04-01T08:34:25.642Z,16.71
2018-04-01T08:36:52.646Z,16.76
2018-04-01T08:39:19.652Z,16.78
2018-04-01T08:41:46.702Z,16.76
2018-04-01T08:44:13.720Z,16.95
2018-04-01T08:46:40.745Z,17.04
2018-04-01T08:49:07.952Z,17.16
2018-04-01T08:51:34.977Z,17.21
2018-04-01T08:54:01.983Z,17.20
2018-04-01T08:56:29.306Z,17.29
2018-04-01T08:58:56.347Z,17.34
2018-04-01T09:01:23.367Z,17.26
2018-04-01T09:03:50.440Z,17.10
2018-04-01T09:06:17.447Z,17.07
2018-04-01T09:08:44.460Z,16.89
2018-04-01T09:11:11.793Z,16.94
2018-04-01T09:13:38.802Z,17.05
2018-04-01T09:16:05.810Z,17.22
2018-04-01T09:18:32.860Z,17.17
2018-04-01T09:20:59.868Z,17.16
2018-04-01T09:23:27.051Z,16.88
2018-04-01T09:25:54.389Z,16.69
2018-04-01T09:28:21.651Z,16.49
2018-04-01T09:30:48.664Z,16.42
2018-04-01T09:33:15.717Z,16.27
2018-04-01T09:35:42.719Z,16.04
2018-04-01T09:38:09.760Z,16.00
2018-04-01T09:40:36.762Z,15.81
2018-04-01T09:43:03.779Z,15.81
2018-04-01T09:45:31.434Z,15.88
2018-04-01T09:47:58.477Z,16.09
2018-04-01T09:50:25.483Z,16.07
2018-04-01T09:52:52.526Z,16.22
2018-04-01T09:55:19.574Z,16.29
2018-04-01T09:57:46.602Z,16.49
2018-04-01T10:00:13.692Z,16.73
2018-04-01T10:02:41.243Z,16.74
2018-04-01T10:05:10.814Z,16.82
2018-04-01T10:07:38.393Z,16.95
2018-04-01T10:10:05.975Z,16.83
2018-04-01T10:12:33.523Z,17.04
2018-04-01T10:15:01.259Z,17.11
2018-04-01T10:17:28.853Z,17.31
2018-04-01T10:19:56.399Z,16.89
2018-04-01T10:22:24.130Z,16.77
2018-04-01T10:24:51.682Z,16.75
2018-04-01T10:27:19.228Z,16.71
2018-04-01T10:29:46.952Z,16.68
2018-04-01T10:32:14.496Z,16.62
2018-04-01T10:34:42.030Z,16.42
2018-04-01T10:37:09.599Z,15.98
2018-04-01T10:39:37.151Z,15.64
2018-04-01T10:42:04.698Z,15.38
2018-04-01T10:44:32.288Z,14.68
2018-04-01T10:46:59.840Z,14.72
2018-04-01T10:49:27.398Z,14.92
2018-04-01T10:51:55.125Z,15.21
2018-04-01T10:54:22.144Z,15.37
2018-04-01T10:56:49.155Z,15.64
2018-04-01T10:59:16.199Z,15.81
2018-04-01T11:01:43.204Z,15.93
2018-04-01T11:04:10.222Z,15.87
2018-04-01T11:06:37.546Z,15.75
2018-04-01T11:09:04.591Z,15.69
2018-04-01T11:11:31.601Z,15.41
2018-04-01T11:13:58.928Z,15.33
2018-04-01T11:16:25.945Z,15.32
2018-04-01T11:18:52.945Z,15.76
2018-04-01T11:21:20.231Z,16.26
2018-04-01T11:23:47.248Z,16.04
2018-04-01T11:26:14.271Z,14.92
2018-04-01T11:28:41.461Z,13.76
2018-04-01T11:31:08.493Z,12.91
2018-04-01T11:33:35.510Z,11.56
2018-04-01T11:36:02.551Z,11.00
2018-04-01T11:38:29.553Z,10.39
2018-04-01T11:40:56.564Z,10.17
2018-04-01T11:43:23.649Z,9.83
2018-04-01T11:45:50.669Z,9.69
2018-04-01T11:48:17.725Z,9.55
2018-04-01T11:50:44.774Z,9.40
2018-04-01T11:53:11.793Z,9.47
2018-04-01T11:55:38.799Z,9.54
2018-04-01T11:58:05.835Z,9.77
2018-04-01T12:00:32.849Z,9.95
2018-04-01T12:02:59.954Z,10.46
2018-04-01T12:05:26.989Z,10.76
2018-04-01T12:07:54.007Z,11.04
2018-04-01T12:10:21.041Z,10.97
2018-04-01T12:12:48.103Z,11.14
2018-04-01T12:15:15.137Z,11.29
2018-04-01T12:17:42.147Z,11.25
2018-04-01T12:20:09.415Z,11.24
2018-04-01T12:22:36.433Z,11.19
2018-04-01T12:25:03.461Z,11.33
2018-04-01T12:27:30.739Z,11.49
2018-04-01T12:29:57.788Z,11.70
2018-04-01T12:32:24.826Z,11.83
2018-04-01T12:34:51.869Z,11.91
2018-04-01T12:37:18.888Z,12.02
2018-04-01T12:39:45.920Z,12.04
2018-04-01T12:42:12.980Z,12.23
2018-04-01T12:44:40.042Z,12.41
2018-04-01T12:47:07.050Z,12.57
2018-04-01T12:49:34.268Z,12.77
2018-04-01T12:52:01.303Z,12.99
2018-04-01T12:54:28.311Z,13.15
2018-04-01T12:56:55.513Z,13.29
2018-04-01T12:59:22.552Z,13.43
2018-04-01T13:01:49.608Z,13.41
2018-04-01T13:04:16.934Z,13.38
2018-04-01T13:06:43.952Z,13.38
2018-04-01T13:09:10.993Z,13.30
2018-04-01T13:11:38.054Z,13.19
2018-04-01T13:14:05.059Z,13.02
2018-04-01T13:16:32.114Z,12.93
2018-04-01T13:18:59.204Z,12.83
2018-04-01T13:21:26.233Z,12.94
2018-04-01T13:23:53.279Z,13.21
2018-04-01T13:26:20.502Z,13.52
2018-04-01T13:28:47.510Z,13.80
2018-04-01T13:31:14.529Z,14.02
2018-04-01T13:33:41.570Z,14.21
2018-04-01T13:36:08.602Z,14.28
2018-04-01T13:38:35.652Z,14.37
2018-04-01T13:41:02.688Z,14.38
2018-04-01T13:43:29.696Z,14.25
2018-04-01T13:45:56.838Z,14.02
2018-04-01T13:48:23.864Z,13.78
2018-04-01T13:50:50.928Z,13.79
2018-04-01T13:53:18.151Z,13.59
2018-04-01T13:55:45.179Z,13.18
2018-04-01T13:58:12.262Z,12.16
2018-04-01T14:00:39.350Z,11.27
2018-04-01T14:03:06.369Z,10.69
2018-04-01T14:05:33.431Z,10.29
2018-04-01T14:08:00.502Z,9.92
2018-04-01T14:10:27.517Z,9.89
2018-04-01T14:12:54.520Z,9.81
2018-04-01T14:15:21.706Z,10.02
2018-04-01T14:17:48.732Z,10.18
2018-04-01T14:20:15.787Z,10.32
2018-04-01T14:22:42.827Z,10.27
2018-04-01T14:25:09.875Z,10.24
2018-04-01T14:27:36.935Z,10.21
2018-04-01T14:30:03.973Z,10.32
2018-04-01T14:32:30.974Z,10.60
2018-04-01T14:34:57.987Z,10.75
2018-04-01T14:37:25.044Z,10.77
2018-04-01T14:39:52.091Z,10.70
2018-04-01T14:42:19.104Z,10.64
2018-04-01T14:44:47.161Z,10.45
2018-04-01T14:47:14.225Z,10.32
2018-04-01T14:49:41.818Z,10.30
2018-04-01T14:52:08.895Z,10.21
2018-04-01T14:54:35.911Z,10.03
2018-04-01T14:57:02.922Z,10.15
2018-04-01T14:59:30.070Z,10.19
2018-04-01T15:01:57.085Z,10.26
2018-04-01T15:04:24.108Z,10.18
2018-04-01T15:06:51.168Z,10.22
2018-04-01T15:09:18.204Z,10.01
2018-04-01T15:11:45.212Z,10.10
2018-04-01T15:14:12.550Z,10.15
2018-04-01T15:16:39.574Z,10.28
2018-04-01T15:19:06.582Z,10.21
2018-04-01T15:21:33.654Z,10.31
2018-04-01T15:24:00.674Z,10.18
2018-04-01T15:26:27.702Z,10.24
2018-04-01T15:28:54.745Z,10.32
2018-04-01T15:31:21.757Z,10.25
2018-04-01T15:33:48.859Z,10.19
2018-04-01T15:36:15.918Z,10.20
2018-04-01T15:38:42.926Z,10.12
2018-04-01T15:41:09.939Z,10.05
2018-04-01T15:43:36.984Z,9.87
2018-04-01T15:46:03.999Z,9.80
2018-04-01T15:48:31.052Z,9.77
2018-04-01T15:50:58.189Z,9.46
2018-04-01T15:53:25.245Z,9.37
2018-04-01T15:55:52.263Z,9.36
2018-04-01T15:58:19.324Z,9.10
2018-04-01T16:00:46.343Z,9.12
2018-04-01T16:03:13.357Z,8.98
2018-04-01T16:05:40.453Z,8.85
2018-04-01T16:08:07.512Z,8.77
2018-04-01T16:10:34.551Z,8.69
2018-04-01T16:13:01.858Z,8.58
2018-04-01T16:15:28.866Z,8.51
2018-04-01T16:17:55.877Z,8.49
2018-04-01T16:20:23.080Z,8.48
2018-04-01T16:22:50.118Z,8.51
2018-04-01T16:25:17.197Z,8.41
2018-04-01T16:27:44.267Z,8.41
2018-04-01T16:30:11.314Z,8.36
2018-04-01T16:32:38.358Z,8.30
2018-04-01T16:35:05.414Z,8.26
2018-04-01T16:37:32.434Z,8.31
2018-04-01T16:39:59.460Z,8.24
2018-04-01T16:42:26.633Z,8.10
2018-04-01T16:44:53.631Z,8.06
2018-04-01T16:47:20.651Z,7.90
2018-04-01T16:49:47.771Z,7.89
2018-04-01T16:52:14.790Z,7.84
2018-04-01T16:54:41.869Z,7.86
2018-04-01T16:57:08.910Z,7.85
2018-04-01T16:59:36.012Z,7.79
2018-04-01T17:02:03.134Z,7.71
2018-04-01T17:04:30.231Z,7.69
2018-04-01T17:06:57.275Z,7.64
2018-04-01T17:09:24.448Z,7.61
2018-04-01T17:11:51.642Z,7.54
2018-04-01T17:14:18.675Z,7.52
2018-04-01T17:16:45.836Z,7.51
2018-04-01T17:19:12.925Z,7.48
2018-04-01T17:21:39.987Z,7.45
2018-04-01T17:24:07.006Z,7.39
2018-04-01T17:26:34.236Z,7.37
2018-04-01T17:29:01.264Z,7.38
2018-04-01T17:31:28.330Z,7.45
2018-04-01T17:33:55.353Z,7.42
2018-04-01T17:36:22.388Z,7.37
2018-04-01T17:38:49.443Z,7.33
2018-04-01T17:41:16.457Z,7.28
2018-04-01T17:43:43.464Z,7.32
2018-04-01T17:46:10.623Z,7.36
2018-04-01T17:48:37.641Z,7.35
2018-04-01T17:51:04.658Z,7.34
2018-04-01T17:53:31.842Z,7.33
2018-04-01T17:55:58.870Z,7.32
2018-04-01T17:58:25.897Z,7.33
2018-04-01T18:00:53.159Z,7.30
2018-04-01T18:03:20.193Z,7.26
2018-04-01T18:05:47.229Z,7.29
2018-04-01T18:08:14.449Z,7.28
2018-04-01T18:10:41.519Z,7.23
2018-04-01T18:13:08.565Z,7.23
2018-04-01T18:15:35.637Z,7.19
2018-04-01T18:18:02.712Z,7.19
2018-04-01T18:20:29.734Z,7.21
2018-04-01T18:22:56.908Z,7.23
2018-04-01T18:25:23.980Z,7.17
2018-04-01T18:27:50.999Z,7.16
2018-04-01T18:30:18.105Z,7.10
2018-04-01T18:32:45.141Z,7.03
2018-04-01T18:35:12.153Z,6.97
2018-04-01T18:37:39.218Z,6.97
2018-04-01T18:40:06.214Z,6.97
2018-04-01T18:42:33.242Z,6.95
2018-04-01T18:45:00.341Z,6.97
2018-04-01T18:47:27.414Z,6.96
2018-04-01T18:49:54.436Z,6.94
2018-04-01T18:52:21.526Z,6.90
2018-04-01T18:54:48.597Z,6.87
2018-04-01T18:57:15.621Z,6.88
2018-04-01T18:59:42.655Z,6.85
2018-04-01T19:02:09.690Z,6.81
2018-04-01T19:04:36.748Z,6.76
2018-04-01T19:07:03.847Z,6.76
2018-04-01T19:09:30.924Z,6.74
2018-04-01T19:11:57.951Z,6.71
2018-04-01T19:14:25.001Z,6.65
2018-04-01T19:17:08.308Z,6.60
2018-04-01T19:19:36.069Z,6.61
2018-04-01T19:22:03.725Z,6.62
2018-04-01T19:24:31.330Z,6.64
2018-04-01T19:26:59.085Z,6.61
2018-04-01T19:29:26.646Z,6.62
2018-04-01T19:31:54.190Z,6.60
2018-04-01T19:34:21.761Z,6.56
2018-04-01T19:36:49.325Z,6.55
2018-04-01T19:39:17.153Z,6.55
2018-04-01T19:41:44.751Z,6.54
2018-04-01T19:44:12.308Z,6.56
2018-04-01T19:46:40.002Z,6.54
2018-04-01T19:49:07.600Z,6.49
2018-04-01T19:51:35.209Z,6.47
2018-04-01T19:54:02.785Z,6.47
2018-04-01T19:56:30.370Z,6.54
2018-04-01T19:58:58.024Z,6.58
2018-04-01T20:01:25.714Z,6.64
2018-04-01T20:03:53.523Z,6.66
2018-04-01T20:06:21.113Z,6.66
2018-04-01T20:08:48.841Z,6.65
2018-04-01T20:11:16.452Z,6.62
2018-04-01T20:13:44.125Z,6.56
2018-04-01T20:16:11.877Z,6.52
2018-04-01T20:18:39.438Z,6.52
2018-04-01T20:21:07.049Z,6.50
2018-04-01T20:23:34.640Z,6.52
2018-04-01T20:26:02.210Z,6.54
2018-04-01T20:28:29.785Z,6.51
2018-04-01T20:30:57.686Z,6.50
2018-04-01T20:33:25.295Z,6.55
2018-04-01T20:35:52.884Z,6.56
2018-04-01T20:38:20.545Z,6.57
2018-04-01T20:40:48.104Z,6.55
2018-04-01T20:43:15.738Z,6.53
2018-04-01T20:45:43.582Z,6.53
2018-04-01T20:48:11.138Z,6.53
2018-04-01T20:50:38.690Z,6.60
2018-04-01T20:53:06.442Z,6.62
2018-04-01T20:55:34.033Z,6.64
2018-04-01T20:58:01.608Z,6.63
2018-04-01T21:00:29.228Z,6.55
2018-04-01T21:02:56.794Z,6.49
2018-04-01T21:05:24.328Z,6.40
2018-04-01T21:07:51.952Z,6.34
2018-04-01T21:10:19.518Z,6.35
2018-04-01T21:12:47.071Z,6.35
2018-04-01T21:15:14.727Z,6.35
2018-04-01T21:17:42.290Z,6.33
2018-04-01T21:20:09.855Z,6.37
2018-04-01T21:22:37.432Z,6.35
2018-04-01T21:25:04.985Z,6.37
2018-04-01T21:27:32.616Z,6.35
2018-04-01T21:30:00.367Z,6.30
2018-04-01T21:32:27.954Z,6.28
2018-04-01T21:34:55.507Z,6.22
2018-04-01T21:37:23.261Z,6.20
2018-04-01T21:39:50.812Z,6.16
2018-04-01T21:42:18.394Z,6.19
2018-04-01T21:44:46.083Z,6.16
2018-04-01T21:47:13.643Z,6.14
2018-04-01T21:49:41.205Z,6.10
2018-04-01T21:52:08.932Z,6.08
2018-04-01T21:54:36.484Z,6.03
2018-04-01T21:57:04.040Z,6.06
2018-04-01T21:59:31.613Z,6.09
2018-04-01T22:01:59.165Z,6.11
2018-04-01T22:04:26.751Z,6.08
2018-04-01T22:06:54.329Z,6.08
2018-04-01T22:09:21.902Z,6.11
2018-04-01T22:11:49.450Z,6.13
2018-04-01T22:14:17.038Z,6.14
2018-04-01T22:16:44.575Z,6.15
2018-04-01T22:19:12.109Z,6.12
2018-04-01T22:21:39.726Z,6.14
2018-04-01T22:24:07.263Z,6.16
2018-04-01T22:26:34.840Z,6.20
2018-04-01T22:29:02.577Z,6.27
2018-04-01T22:31:30.159Z,6.31
2018-04-01T22:33:57.702Z,6.28
2018-04-01T22:36:25.450Z,6.22
2018-04-01T22:38:52.993Z,6.18
2018-04-01T22:41:20.542Z,6.23
2018-04-01T22:43:48.284Z,6.25
2018-04-01T22:46:15.842Z,6.21
2018-04-01T22:48:43.383Z,6.20
2018-04-01T22:51:10.957Z,6.27
2018-04-01T22:53:38.500Z,6.34
2018-04-01T22:56:06.058Z,6.41
2018-04-01T22:58:33.729Z,6.49
2018-04-01T23:01:01.273Z,6.56
2018-04-01T23:03:28.825Z,6.66
2018-04-01T23:05:56.403Z,6.69
2018-04-01T23:08:23.941Z,6.74
2018-04-01T23:10:51.491Z,6.78
2018-04-01T23:13:19.069Z,6.81
2018-04-01T23:15:46.602Z,6.85
2018-04-01T23:18:14.143Z,6.88
2018-04-01T23:20:41.871Z,6.85
2018-04-01T23:23:09.437Z,6.78
2018-04-01T23:25:36.974Z,6.70
2018-04-01T23:28:04.838Z,6.68
2018-04-01T23:30:32.381Z,6.65
2018-04-01T23:32:59.928Z,6.63
2018-04-01T23:35:27.493Z,6.64
2018-04-01T23:37:55.023Z,6.63
2018-04-01T23:40:22.870Z,6.61
2018-04-01T23:42:50.432Z,6.55
2018-04-01T23:45:17.966Z,6.58
2018-04-01T23:47:45.708Z,6.51
2018-04-01T23:50:13.302Z,6.48
2018-04-01T23:52:40.858Z,6.44
2018-04-01T23:55:08.531Z,6.39
2018-04-01T23:57:36.091Z,6.35
